createdAt,value
2022-09-28T00:00:19.702Z,20.00
2022-09-28T00:05:22.329Z,19.58
2022-09-28T00:10:24.685Z,24.30
2022-09-28T00:15:28.400Z,21.73
2022-09-28T00:20:30.733Z,18.98
2022-09-28T00:25:33.685Z,23.05
2022-09-28T00:30:37.366Z,22.17
2022-09-28T00:35:39.690Z,20.27
2022-09-28T00:40:42.077Z,22.45
2022-09-28T00:45:45.898Z,23.88
2022-09-28T00:50:48.499Z,23.00
2022-09-28T00:55:52.769Z,21.67
2022-09-28T01:00:58.270Z,22.27
2022-09-28T01:06:02.254Z,22.25
2022-09-28T01:11:04.645Z,18.50
2022-09-28T01:16:12.882Z,21.10
2022-09-28T01:21:16.622Z,22.83
2022-09-28T01:26:33.861Z,19.33
2022-09-28T01:31:38.416Z,19.02
2022-09-28T01:36:43.630Z,21.83
2022-09-28T01:41:48.866Z,23.92
2022-09-28T01:46:53.355Z,21.95
2022-09-28T01:51:56.584Z,23.88
2022-09-28T01:57:01.400Z,23.02
2022-09-28T02:02:07.275Z,25.30
2022-09-28T02:07:11.850Z,25.85
2022-09-28T02:12:15.649Z,21.50
2022-09-28T02:17:19.704Z,26.73
2022-09-28T02:22:25.693Z,25.50
2022-09-28T02:27:31.138Z,24.65
2022-09-28T02:32:40.105Z,23.80
2022-09-28T02:37:42.437Z,28.25
2022-09-28T02:42:48.723Z,27.60
2022-09-28T02:47:57.354Z,26.88
2022-09-28T02:53:09.589Z,30.70
2022-09-28T02:58:20.376Z,32.22
2022-09-28T03:03:30.085Z,28.00
2022-09-28T03:08:34.786Z,27.35
2022-09-28T03:13:37.526Z,26.80
2022-09-28T03:18:41.249Z,25.30
2022-09-28T03:23:43.618Z,25.85
2022-09-28T03:28:46.061Z,25.73
2022-09-28T03:33:49.729Z,28.55
2022-09-28T03:38:52.630Z,29.70
2022-09-28T03:43:55.120Z,27.92
2022-09-28T03:48:59.109Z,25.10
2022-09-28T03:54:01.560Z,25.52
2022-09-28T03:59:04.362Z,24.70
2022-09-28T04:04:08.039Z,26.50
2022-09-28T04:09:10.802Z,28.50
2022-09-28T04:14:13.166Z,27.40
2022-09-28T04:19:17.145Z,28.60
2022-09-28T04:24:20.219Z,30.75
2022-09-28T04:29:22.666Z,31.30
2022-09-28T04:34:29.011Z,27.85
2022-09-28T04:39:34.306Z,28.55
2022-09-28T04:44:36.634Z,27.73
2022-09-28T04:49:40.382Z,35.83
2022-09-28T04:54:42.726Z,31.70
2022-09-28T04:59:45.698Z,31.10
2022-09-28T05:04:49.337Z,30.52
2022-09-28T05:14:53.883Z,34.58
2022-09-28T05:19:57.545Z,34.83
2022-09-28T05:25:00.327Z,31.00
2022-09-28T05:30:02.666Z,29.77
2022-09-28T05:35:07.054Z,33.10
2022-09-28T05:40:09.838Z,33.45
2022-09-28T05:45:12.150Z,32.07
2022-09-28T05:50:16.257Z,34.17
2022-09-28T05:55:18.592Z,29.70
2022-09-28T06:00:21.014Z,29.33
2022-09-28T06:05:24.704Z,30.45
2022-09-28T06:10:27.647Z,25.70
2022-09-28T06:15:30.803Z,34.17
2022-09-28T06:20:36.516Z,26.17
2022-09-28T06:25:38.913Z,28.48
2022-09-28T06:30:42.019Z,22.70
2022-09-28T06:35:45.762Z,23.13
2022-09-28T06:40:48.160Z,23.40
2022-09-28T06:45:52.269Z,23.80
2022-09-28T06:50:55.972Z,23.38
2022-09-28T06:55:58.310Z,26.25
2022-09-28T07:01:00.748Z,23.88
2022-09-28T07:06:04.788Z,24.13
2022-09-28T07:11:07.665Z,21.63
2022-09-28T07:16:10.032Z,20.20
2022-09-28T07:21:26.790Z,20.02
2022-09-28T07:26:33.268Z,21.08
2022-09-28T07:31:35.602Z,20.88
2022-09-28T07:36:39.368Z,17.40
2022-09-28T07:41:42.942Z,21.15
2022-09-28T07:46:45.278Z,14.95
2022-09-28T07:51:48.955Z,20.08
2022-09-28T07:56:51.272Z,17.98
2022-09-28T08:01:53.738Z,13.93
2022-09-28T08:06:57.571Z,14.50
2022-09-28T08:11:59.894Z,17.55
2022-09-28T08:17:02.581Z,18.52
2022-09-28T08:22:06.926Z,14.57
2022-09-28T08:27:10.399Z,14.98
2022-09-28T08:32:12.704Z,16.42
2022-09-28T08:37:16.369Z,11.25
2022-09-28T08:42:27.357Z,10.75
2022-09-28T08:47:49.662Z,12.88
2022-09-28T08:52:57.839Z,11.55
2022-09-28T08:58:02.087Z,10.30
2022-09-28T09:03:06.422Z,10.30
2022-09-28T09:08:15.359Z,12.07
2022-09-28T09:13:25.411Z,11.18
2022-09-28T09:18:32.314Z,12.25
2022-09-28T09:23:39.079Z,7.85
2022-09-28T09:28:58.406Z,8.95
2022-09-28T09:34:07.223Z,6.72
2022-09-28T09:39:19.498Z,6.07
2022-09-28T09:44:28.958Z,4.90
2022-09-28T09:49:35.419Z,5.57
2022-09-28T09:54:41.367Z,6.50
2022-09-28T09:59:44.492Z,4.63
2022-09-28T10:09:51.796Z,4.80
2022-09-28T10:14:55.266Z,3.00
2022-09-28T10:19:57.718Z,3.10
2022-09-28T10:25:01.415Z,2.33
2022-09-28T10:30:13.827Z,2.95
2022-09-28T10:35:23.881Z,1.25
2022-09-28T10:40:30.353Z,1.30
2022-09-28T10:45:35.332Z,0.80
2022-09-28T10:50:39.130Z,2.08
2022-09-28T10:55:42.811Z,1.10
2022-09-28T11:00:45.540Z,1.30
2022-09-28T11:05:54.493Z,1.55
2022-09-28T11:11:08.718Z,1.20
2022-09-28T11:16:19.875Z,1.52
2022-09-28T11:21:26.576Z,1.50
2022-09-28T11:26:35.231Z,0.90
2022-09-28T11:31:39.702Z,2.17
2022-09-28T11:36:52.078Z,0.85
2022-09-28T11:41:58.832Z,0.75
2022-09-28T11:47:05.724Z,1.67
2022-09-28T11:52:10.873Z,0.70
2022-09-28T11:57:17.215Z,0.80
2022-09-28T12:02:22.951Z,2.45
2022-09-28T12:07:26.774Z,1.40
2022-09-28T12:12:32.906Z,0.65
2022-09-28T12:17:37.180Z,1.38
2022-09-28T12:22:41.905Z,1.02
2022-09-28T12:27:50.529Z,0.40
2022-09-28T12:32:56.432Z,1.73
2022-09-28T12:38:08.854Z,0.40
2022-09-28T12:43:28.970Z,0.80
2022-09-28T12:48:42.109Z,1.55
2022-09-28T12:53:53.905Z,0.63
2022-09-28T12:59:05.165Z,0.73
2022-09-28T13:04:14.157Z,0.73
2022-09-28T13:09:19.908Z,1.05
2022-09-28T13:14:33.769Z,1.70
2022-09-28T13:19:40.866Z,1.60
2022-09-28T13:24:44.380Z,1.20
2022-09-28T13:29:51.110Z,0.88
2022-09-28T13:34:54.721Z,1.65
2022-09-28T13:39:58.883Z,2.08
2022-09-28T13:45:12.354Z,0.98
2022-09-28T13:55:24.710Z,0.57
2022-09-28T14:00:30.633Z,0.45
2022-09-28T14:05:35.008Z,0.60
2022-09-28T14:10:48.830Z,0.55
2022-09-28T14:15:52.558Z,0.55
2022-09-28T14:21:02.975Z,3.75
2022-09-28T14:26:23.841Z,0.47
2022-09-28T14:31:28.884Z,0.40
2022-09-28T14:36:53.520Z,1.23
2022-09-28T14:41:55.868Z,1.13
2022-09-28T14:47:25.543Z,0.60
2022-09-28T14:52:41.653Z,0.65
2022-09-28T14:57:43.994Z,0.70
2022-09-28T15:02:49.814Z,15.70
2022-09-28T15:07:53.213Z,0.70
2022-09-28T15:12:57.075Z,0.75
2022-09-28T15:18:08.409Z,0.60
2022-09-28T15:23:24.970Z,0.45
2022-09-28T15:28:27.313Z,1.00
2022-09-28T15:33:49.410Z,0.80
2022-09-28T15:38:54.802Z,0.50
2022-09-28T15:44:20.125Z,1.25
2022-09-28T15:49:25.658Z,3.17
2022-09-28T15:54:32.069Z,2.60
2022-09-28T15:59:35.562Z,1.17
2022-09-28T16:04:40.759Z,2.47
2022-09-28T16:09:54.538Z,1.15
2022-09-28T16:20:00.988Z,1.08
2022-09-28T16:25:03.392Z,0.80
2022-09-28T16:30:15.298Z,0.80
2022-09-28T16:35:23.634Z,4.85
2022-09-28T16:40:26.579Z,1.73
2022-09-28T16:45:29.030Z,2.08
2022-09-28T16:50:32.711Z,1.42
2022-09-28T16:55:40.640Z,0.95
2022-09-28T17:00:45.666Z,1.20
2022-09-28T17:05:49.331Z,0.80
2022-09-28T17:11:14.512Z,0.80
2022-09-28T17:16:17.791Z,2.38
2022-09-28T17:21:21.640Z,3.47
2022-09-28T17:26:27.357Z,7.43
2022-09-28T17:31:30.205Z,3.58
2022-09-28T17:36:33.977Z,1.20
2022-09-28T17:41:37.234Z,2.15
2022-09-28T17:46:40.866Z,6.25
2022-09-28T17:51:44.605Z,6.18
2022-09-28T17:56:47.109Z,6.28
2022-09-28T18:01:49.543Z,29.23
2022-09-28T18:06:53.277Z,22.50
2022-09-28T18:12:00.156Z,18.83
2022-09-28T18:17:02.570Z,4.07
2022-09-28T18:22:06.236Z,3.80
2022-09-28T18:27:08.665Z,4.97
2022-09-28T18:32:11.130Z,8.07
2022-09-28T18:37:14.961Z,8.48
2022-09-28T18:42:17.306Z,7.20
2022-09-28T18:47:19.695Z,7.75
2022-09-28T18:52:24.420Z,4.60
2022-09-28T18:57:27.462Z,6.75
2022-09-28T19:02:30.064Z,5.95
2022-09-28T19:07:34.128Z,7.50
2022-09-28T19:12:36.438Z,10.40
2022-09-28T19:17:39.520Z,12.65
2022-09-28T19:22:43.220Z,11.75
2022-09-28T19:32:48.005Z,9.38
2022-09-28T19:37:52.149Z,9.77
2022-09-28T19:42:54.667Z,10.07
2022-09-28T19:47:59.574Z,14.88
2022-09-28T19:53:06.608Z,17.30
2022-09-28T19:58:09.110Z,16.77
2022-09-28T20:03:11.453Z,15.63
2022-09-28T20:08:15.443Z,18.85
2022-09-28T20:13:17.762Z,18.65
2022-09-28T20:18:20.126Z,21.70
2022-09-28T20:23:23.827Z,20.10
2022-09-28T20:28:26.903Z,23.58
2022-09-28T20:33:31.468Z,21.75
2022-09-28T20:38:38.236Z,20.48
2022-09-28T20:43:41.164Z,22.92
2022-09-28T20:48:43.591Z,24.30
2022-09-28T20:53:49.735Z,24.65
2022-09-28T20:58:52.367Z,26.02
2022-09-28T21:03:55.118Z,28.37
2022-09-28T21:08:58.902Z,30.97
2022-09-28T21:14:02.136Z,28.63
2022-09-28T21:19:04.673Z,29.30
2022-09-28T21:24:08.864Z,31.90
2022-09-28T21:29:12.493Z,29.23
2022-09-28T21:39:19.072Z,26.63
2022-09-28T21:44:21.517Z,27.10
2022-09-28T21:49:23.882Z,31.92
2022-09-28T21:54:28.870Z,34.55
2022-09-28T21:59:31.253Z,32.90
2022-09-28T22:04:33.635Z,38.90
2022-09-28T22:09:38.440Z,36.75
2022-09-28T22:14:40.772Z,32.60
2022-09-28T22:19:43.190Z,31.20
2022-09-28T22:24:46.914Z,30.63
2022-09-28T22:29:49.278Z,29.83
2022-09-28T22:34:51.626Z,35.33
2022-09-28T22:39:55.650Z,35.25
2022-09-28T22:44:58.037Z,31.35
2022-09-28T22:50:00.363Z,24.17
2022-09-28T22:55:04.115Z,29.80
2022-09-28T23:00:07.538Z,27.60
2022-09-28T23:05:10.103Z,28.60
2022-09-28T23:10:13.859Z,39.75
2022-09-28T23:15:16.374Z,50.72
2022-09-28T23:20:18.992Z,47.85
2022-09-28T23:25:22.685Z,52.28
2022-09-28T23:35:27.220Z,51.42
2022-09-28T23:40:31.099Z,53.85
2022-09-28T23:45:33.528Z,55.70
2022-09-28T23:50:35.889Z,56.47
2022-09-28T23:55:39.533Z,54.85
